Time;durP1;ratioP1;P1;durP2;ratioP2;P2;SDS_P1;SDS_P2;PMS_P1;PMS_P2;Temp;Humidity;BMP_temperature;BMP_pressure;BME280_temperature;BME280_humidity;BME280_pressure;Samples;Min_cycle;Max_cycle;Signal;HPM_P1;HPM_P2
2023/04/12 00:02:16;;;;;;;9.95;2.60;;;;;;;;;;5053348;28;20024;-68
2023/04/12 00:04:42;;;;;;;5.82;1.92;;;;;;;;;;5052643;28;20397;-67
2023/04/12 00:07:09;;;;;;;5.00;1.63;;;;;;;;;;5052726;28;20021;-68
2023/04/12 00:09:36;;;;;;;7.32;1.92;;;;;;;;;;5052773;28;20031;-68
2023/04/12 00:12:03;;;;;;;6.97;2.22;;;;;;;;;;5052961;28;20021;-68
2023/04/12 00:14:29;;;;;;;10.65;2.65;;;;;;;;;;5052666;28;20029;-68
2023/04/12 00:16:56;;;;;;;8.10;2.17;;;;;;;;;;5053113;28;20031;-68
2023/04/12 00:19:26;;;;;;;7.40;1.88;;;;;;;;;;5052769;28;20031;-68
2023/04/12 00:21:52;;;;;;;6.77;1.80;;;;;;;;;;5053296;28;20021;-68
2023/04/12 00:24:19;;;;;;;7.50;1.77;;;;;;;;;;5052609;28;20032;-68
2023/04/12 00:26:45;;;;;;;7.22;2.50;;;;;;;;;;5052665;28;20843;-68
2023/04/12 00:29:11;;;;;;;5.35;1.52;;;;;;;;;;5052889;28;20082;-68
2023/04/12 00:31:38;;;;;;;6.43;2.03;;;;;;;;;;5051599;28;20041;-67
2023/04/12 00:34:04;;;;;;;6.93;1.83;;;;;;;;;;5051589;28;20033;-68
2023/04/12 00:36:30;;;;;;;6.85;1.80;;;;;;;;;;5052043;28;20024;-68
2023/04/12 00:38:57;;;;;;;5.43;1.92;;;;;;;;;;5051610;28;20404;-68
2023/04/12 00:41:23;;;;;;;5.80;2.00;;;;;;;;;;5051517;28;20032;-68
2023/04/12 00:43:50;;;;;;;11.82;2.30;;;;;;;;;;5051456;28;20021;-68
2023/04/12 00:46:18;;;;;;;8.38;2.33;;;;;;;;;;5051637;28;20028;-68
2023/04/12 00:48:47;;;;;;;7.63;2.10;;;;;;;;;;5051417;28;20028;-68
2023/04/12 00:51:13;;;;;;;5.93;2.15;;;;;;;;;;5051533;28;20028;-68
2023/04/12 00:53:40;;;;;;;9.20;2.22;;;;;;;;;;5051332;28;20039;-68
2023/04/12 00:56:07;;;;;;;8.65;2.95;;;;;;;;;;5051520;28;20025;-68
2023/04/12 00:58:33;;;;;;;9.80;2.55;;;;;;;;;;5051281;28;20017;-68
2023/04/12 01:00:59;;;;;;;9.43;2.72;;;;;;;;;;5051426;28;20504;-68
2023/04/12 01:03:29;;;;;;;11.00;2.60;;;;;;;;;;5051660;28;20036;-67
2023/04/12 01:06:04;;;;;;;8.88;2.17;;;;;;;;;;5050747;28;20028;-68
2023/04/12 01:08:51;;;;;;;7.47;2.30;;;;;;;;;;5051189;28;20388;-68
2023/04/12 01:11:17;;;;;;;6.00;1.77;;;;;;;;;;5051025;28;20027;-68
2023/04/12 01:14:19;;;;;;;7.57;1.95;;;;;;;;;;5051295;28;20078;-68
2023/04/12 01:16:52;;;;;;;6.50;1.80;;;;;;;;;;5028128;28;20022;-68
2023/04/12 01:19:36;;;;;;;4.50;2.13;;;;;;;;;;5028677;28;20490;-68
2023/04/12 01:22:21;;;;;;;9.40;2.15;;;;;;;;;;5028682;28;20033;-67
2023/04/12 01:25:00;;;;;;;7.40;2.53;;;;;;;;;;5028937;28;20399;-67
2023/04/12 01:27:42;;;;;;;8.70;2.58;;;;;;;;;;5028935;28;20040;-68
2023/04/12 01:30:10;;;;;;;7.25;2.20;;;;;;;;;;4987505;28;1191762;-68
2023/04/12 01:32:38;;;;;;;9.15;2.38;;;;;;;;;;5029574;28;20401;-68
2023/04/12 01:35:07;;;;;;;7.90;2.40;;;;;;;;;;5029733;28;20043;-67
2023/04/12 01:37:34;;;;;;;5.78;2.22;;;;;;;;;;5029709;28;20562;-68
2023/04/12 01:40:04;;;;;;;8.27;1.98;;;;;;;;;;5029519;28;20128;-67
2023/04/12 01:42:31;;;;;;;6.45;2.10;;;;;;;;;;5029680;28;20026;-68
2023/04/12 01:44:58;;;;;;;11.32;2.08;;;;;;;;;;5029507;28;20037;-67
2023/04/12 01:47:24;;;;;;;8.23;2.28;;;;;;;;;;5029538;28;20026;-68
2023/04/12 01:50:00;;;;;;;9.07;3.10;;;;;;;;;;5032115;28;20060;-68
2023/04/12 01:52:30;;;;;;;5.13;2.38;;;;;;;;;;5051415;28;20047;-67
2023/04/12 01:54:57;;;;;;;5.93;2.28;;;;;;;;;;5051738;28;20028;-68
2023/04/12 01:57:25;;;;;;;8.57;2.22;;;;;;;;;;5051465;28;20484;-67
2023/04/12 01:59:53;;;;;;;9.52;2.65;;;;;;;;;;5051321;28;20025;-68
2023/04/12 02:02:20;;;;;;;3.65;1.77;;;;;;;;;;5051476;28;20021;-68
2023/04/12 02:04:46;;;;;;;5.25;1.98;;;;;;;;;;5051381;28;20017;-68
2023/04/12 02:07:13;;;;;;;10.10;2.45;;;;;;;;;;5051264;28;20028;-68
2023/04/12 02:09:40;;;;;;;8.57;2.35;;;;;;;;;;5051457;28;20496;-68
2023/04/12 02:12:06;;;;;;;12.73;2.78;;;;;;;;;;5051503;28;20041;-67
2023/04/12 02:14:33;;;;;;;5.88;2.03;;;;;;;;;;5051099;28;20067;-68
2023/04/12 02:17:01;;;;;;;6.15;2.45;;;;;;;;;;5051376;28;20029;-67
2023/04/12 02:19:27;;;;;;;5.75;2.00;;;;;;;;;;5051304;28;20028;-68
2023/04/12 02:21:54;;;;;;;8.02;2.40;;;;;;;;;;5051532;28;20033;-68
2023/04/12 02:24:20;;;;;;;9.20;2.40;;;;;;;;;;5051235;28;20017;-68
2023/04/12 02:26:48;;;;;;;6.70;2.33;;;;;;;;;;5050019;28;20028;-68
2023/04/12 02:29:15;;;;;;;8.38;1.98;;;;;;;;;;5052960;28;20027;-67
2023/04/12 02:31:41;;;;;;;6.97;2.17;;;;;;;;;;5034647;28;20048;-68
2023/04/12 02:34:07;;;;;;;7.30;1.85;;;;;;;;;;5034540;28;20045;-68
2023/04/12 02:36:36;;;;;;;5.72;2.42;;;;;;;;;;5034563;28;20075;-68
2023/04/12 02:39:02;;;;;;;6.53;2.10;;;;;;;;;;5034719;28;20035;-67
2023/04/12 02:41:29;;;;;;;6.72;2.10;;;;;;;;;;5034769;28;20038;-68
2023/04/12 02:43:55;;;;;;;10.63;2.60;;;;;;;;;;5034845;28;20030;-68
2023/04/12 02:46:22;;;;;;;5.22;2.00;;;;;;;;;;5034709;28;20025;-68
2023/04/12 02:48:49;;;;;;;8.10;2.10;;;;;;;;;;5034211;28;20486;-68
2023/04/12 02:51:15;;;;;;;7.07;1.95;;;;;;;;;;5034549;28;20499;-68
2023/04/12 02:53:42;;;;;;;7.32;2.08;;;;;;;;;;5034356;28;20041;-68
2023/04/12 02:56:08;;;;;;;4.85;2.13;;;;;;;;;;5034446;28;20026;-68
2023/04/12 02:58:35;;;;;;;8.73;2.15;;;;;;;;;;5034157;28;20048;-68
2023/04/12 03:01:06;;;;;;;4.38;1.90;;;;;;;;;;5034276;28;20033;-68
2023/04/12 03:03:32;;;;;;;;;;;;;;;;;;5034486;28;20025;-68
2023/04/12 03:05:59;;;;;;;5.88;2.47;;;;;;;;;;5034149;28;19909;-67
2023/04/12 03:08:25;;;;;;;9.85;2.40;;;;;;;;;;5034141;28;20032;-67
2023/04/12 03:10:52;;;;;;;5.38;2.25;;;;;;;;;;5034304;28;20036;-67
2023/04/12 03:13:18;;;;;;;8.05;2.17;;;;;;;;;;5034218;28;20033;-68
2023/04/12 03:15:46;;;;;;;10.00;2.38;;;;;;;;;;5034048;28;20021;-68
2023/04/12 03:18:13;;;;;;;6.47;2.60;;;;;;;;;;5033963;28;20078;-67
2023/04/12 03:20:40;;;;;;;8.15;2.38;;;;;;;;;;5034031;28;20411;-68
2023/04/12 03:23:06;;;;;;;7.32;2.15;;;;;;;;;;5034395;28;20547;-68
2023/04/12 03:25:33;;;;;;;6.90;2.15;;;;;;;;;;5033982;28;20029;-68
2023/04/12 03:27:59;;;;;;;5.65;2.60;;;;;;;;;;5033951;28;20029;-66
2023/04/12 03:30:25;;;;;;;8.20;2.50;;;;;;;;;;5043296;28;20041;-67
2023/04/12 03:32:52;;;;;;;12.07;2.30;;;;;;;;;;5053447;28;20028;-68
2023/04/12 03:35:18;;;;;;;9.20;2.53;;;;;;;;;;5053605;28;20532;-67
2023/04/12 03:37:44;;;;;;;9.60;2.55;;;;;;;;;;5053423;28;20436;-67
2023/04/12 03:40:11;;;;;;;5.22;2.28;;;;;;;;;;5034742;28;20052;-67
2023/04/12 03:42:37;;;;;;;8.85;2.50;;;;;;;;;;5053165;28;20520;-68
2023/04/12 03:45:04;;;;;;;8.43;2.28;;;;;;;;;;5053319;28;20029;-67
2023/04/12 03:47:31;;;;;;;12.38;2.50;;;;;;;;;;5053415;28;20025;-68
2023/04/12 03:50:02;;;;;;;6.70;2.05;;;;;;;;;;5053313;28;20035;-68
2023/04/12 03:52:28;;;;;;;6.37;2.27;;;;;;;;;;5052966;28;20031;-67
2023/04/12 03:54:54;;;;;;;7.22;2.08;;;;;;;;;;5053221;28;20037;-67
2023/04/12 03:57:21;;;;;;;5.65;2.25;;;;;;;;;;5053313;28;20031;-68
2023/04/12 03:59:47;;;;;;;8.38;2.22;;;;;;;;;;5052754;28;20483;-68
2023/04/12 04:02:13;;;;;;;8.30;2.42;;;;;;;;;;5053191;28;20363;-67
2023/04/12 04:04:40;;;;;;;4.82;2.15;;;;;;;;;;5053063;28;20028;-68
2023/04/12 04:07:06;;;;;;;8.45;2.70;;;;;;;;;;5052979;28;20562;-68
2023/04/12 04:09:33;;;;;;;6.32;2.17;;;;;;;;;;5052838;28;20023;-67
2023/04/12 04:12:00;;;;;;;14.48;2.80;;;;;;;;;;5052857;28;20047;-68
2023/04/12 04:14:27;;;;;;;12.20;2.85;;;;;;;;;;5052535;28;20040;-68
2023/04/12 04:16:54;;;;;;;9.35;2.22;;;;;;;;;;5052989;28;20027;-68
2023/04/12 04:19:20;;;;;;;7.72;2.50;;;;;;;;;;5052646;28;20039;-68
2023/04/12 04:21:48;;;;;;;10.50;2.95;;;;;;;;;;5052981;28;20029;-68
2023/04/12 04:24:17;;;;;;;7.47;2.50;;;;;;;;;;5052775;28;20027;-67
2023/04/12 04:26:44;;;;;;;10.93;5.60;;;;;;;;;;5052667;28;20017;-68
2023/04/12 04:29:10;;;;;;;7.90;4.05;;;;;;;;;;5052436;28;20025;-68
2023/04/12 04:31:37;;;;;;;11.13;3.03;;;;;;;;;;5052401;28;20053;-68
2023/04/12 04:34:04;;;;;;;7.80;2.45;;;;;;;;;;5052187;28;20041;-68
2023/04/12 04:36:34;;;;;;;15.27;2.95;;;;;;;;;;5052994;28;20021;-68
2023/04/12 04:39:01;;;;;;;10.07;3.35;;;;;;;;;;5052784;28;20028;-68
2023/04/12 04:41:27;;;;;;;10.57;3.13;;;;;;;;;;5052245;28;20025;-68
2023/04/12 04:43:53;;;;;;;6.45;2.47;;;;;;;;;;5052027;28;20551;-68
2023/04/12 04:46:20;;;;;;;8.30;2.70;;;;;;;;;;5052676;28;20029;-68
2023/04/12 04:48:48;;;;;;;10.55;2.63;;;;;;;;;;5052645;28;20053;-67
2023/04/12 04:51:14;;;;;;;8.60;2.72;;;;;;;;;;5051999;28;20492;-68
2023/04/12 04:53:41;;;;;;;10.10;2.70;;;;;;;;;;5051952;28;20037;-68
2023/04/12 04:56:07;;;;;;;11.93;2.83;;;;;;;;;;5052253;28;20023;-68
2023/04/12 04:58:34;;;;;;;5.80;2.80;;;;;;;;;;5052050;28;20017;-67
2023/04/12 05:01:00;;;;;;;6.53;2.50;;;;;;;;;;5051774;28;20508;-68
2023/04/12 05:03:27;;;;;;;6.32;2.53;;;;;;;;;;5052444;28;20086;-67
2023/04/12 05:05:56;;;;;;;8.93;3.35;;;;;;;;;;5052035;28;20444;-68
2023/04/12 05:08:23;;;;;;;13.70;3.78;;;;;;;;;;5051940;28;20039;-68
2023/04/12 05:10:52;;;;;;;11.82;3.70;;;;;;;;;;5052430;28;20029;-67
2023/04/12 05:13:21;;;;;;;10.02;3.63;;;;;;;;;;5051651;28;20059;-67
2023/04/12 05:15:47;;;;;;;9.68;2.88;;;;;;;;;;5051958;28;20017;-67
2023/04/12 05:18:14;;;;;;;6.25;2.50;;;;;;;;;;5051848;28;20029;-68
2023/04/12 05:20:40;;;;;;;16.08;5.20;;;;;;;;;;5052052;28;20023;-68
2023/04/12 05:23:07;;;;;;;14.40;5.00;;;;;;;;;;5051738;28;20051;-68
2023/04/12 05:25:33;;;;;;;10.65;4.82;;;;;;;;;;5051976;28;20389;-68
2023/04/12 05:28:00;;;;;;;11.82;4.93;;;;;;;;;;5051440;28;20036;-68
2023/04/12 05:30:26;;;;;;;7.45;3.75;;;;;;;;;;5051571;28;20056;-68
2023/04/12 05:32:52;;;;;;;13.60;3.85;;;;;;;;;;5051981;28;20033;-68
2023/04/12 05:35:19;;;;;;;7.57;3.38;;;;;;;;;;5051896;28;20029;-67
2023/04/12 05:37:45;;;;;;;9.63;3.45;;;;;;;;;;5051659;28;20025;-68
2023/04/12 05:40:12;;;;;;;6.72;2.97;;;;;;;;;;5052091;28;20021;-67
2023/04/12 05:42:38;;;;;;;6.90;2.47;;;;;;;;;;5050611;28;20021;-68
2023/04/12 05:45:05;;;;;;;7.72;2.88;;;;;;;;;;5051659;28;20021;-67
2023/04/12 05:47:32;;;;;;;7.47;2.75;;;;;;;;;;5051782;28;20021;-67
2023/04/12 05:49:58;;;;;;;12.05;3.00;;;;;;;;;;5052054;28;20021;-67
2023/04/12 05:52:24;;;;;;;5.55;2.90;;;;;;;;;;5052045;28;20021;-68
2023/04/12 05:54:52;;;;;;;5.70;2.67;;;;;;;;;;5051730;28;20049;-67
2023/04/12 05:57:18;;;;;;;6.75;2.70;;;;;;;;;;5051363;28;20025;-68
2023/04/12 05:59:45;;;;;;;10.05;3.30;;;;;;;;;;5051509;28;20033;-67
2023/04/12 06:02:11;;;;;;;12.27;3.63;;;;;;;;;;5051450;28;20381;-68
2023/04/12 06:04:39;;;;;;;12.48;3.00;;;;;;;;;;5053871;28;20021;-67
2023/04/12 06:07:06;;;;;;;10.00;2.85;;;;;;;;;;5057793;28;20016;-68
2023/04/12 06:09:32;;;;;;;9.43;2.85;;;;;;;;;;5054473;28;20060;-68
2023/04/12 06:11:58;;;;;;;8.45;3.33;;;;;;;;;;5049943;28;20019;-67
2023/04/12 06:14:25;;;;;;;9.38;3.42;;;;;;;;;;5054435;28;20401;-67
2023/04/12 06:16:51;;;;;;;10.23;3.63;;;;;;;;;;5053752;28;20021;-67
2023/04/12 06:19:17;;;;;;;9.20;3.03;;;;;;;;;;5052980;28;20374;-68
2023/04/12 06:21:44;;;;;;;12.88;2.92;;;;;;;;;;5053686;28;20035;-67
2023/04/12 06:24:10;;;;;;;7.13;3.33;;;;;;;;;;5054376;28;20389;-66
2023/04/12 06:26:37;;;;;;;7.68;2.90;;;;;;;;;;5053563;28;20025;-66
2023/04/12 06:29:03;;;;;;;11.45;2.20;;;;;;;;;;5054179;28;20090;-67
2023/04/12 06:31:30;;;;;;;9.30;2.50;;;;;;;;;;5053659;28;20049;-67
2023/04/12 06:33:56;;;;;;;5.68;2.40;;;;;;;;;;5050710;28;20045;-66
2023/04/12 06:36:22;;;;;;;7.53;2.28;;;;;;;;;;5048953;28;20035;-67
2023/04/12 06:38:50;;;;;;;6.35;2.58;;;;;;;;;;5041223;28;20037;-65
2023/04/12 06:41:16;;;;;;;16.23;2.97;;;;;;;;;;5050998;28;20025;-67
2023/04/12 06:43:42;;;;;;;7.35;2.67;;;;;;;;;;5035515;28;20014;-67
2023/04/12 06:46:09;;;;;;;9.98;2.67;;;;;;;;;;5035743;28;20029;-66
2023/04/12 06:48:35;;;;;;;8.10;3.13;;;;;;;;;;5047655;28;20029;-66
2023/04/12 06:51:02;;;;;;;8.18;2.90;;;;;;;;;;5049877;28;20393;-66
2023/04/12 06:53:29;;;;;;;12.90;3.38;;;;;;;;;;5050218;28;20041;-66
2023/04/12 06:55:56;;;;;;;9.18;3.50;;;;;;;;;;5052770;28;20013;-66
2023/04/12 06:58:22;;;;;;;11.45;4.18;;;;;;;;;;5053608;28;20031;-67
2023/04/12 07:00:48;;;;;;;15.02;3.17;;;;;;;;;;5053383;28;20032;-65
2023/04/12 07:03:14;;;;;;;15.57;2.80;;;;;;;;;;5052959;28;20028;-67
2023/04/12 07:05:41;;;;;;;11.57;2.70;;;;;;;;;;5053077;28;20029;-66
2023/04/12 07:08:08;;;;;;;7.50;2.25;;;;;;;;;;5052950;28;20025;-66
2023/04/12 07:10:35;;;;;;;8.15;2.58;;;;;;;;;;5051225;28;20401;-66
2023/04/12 07:13:05;;;;;;;8.13;2.58;;;;;;;;;;5052321;28;20024;-66
2023/04/12 07:15:32;;;;;;;9.57;2.38;;;;;;;;;;5045693;28;20025;-65
2023/04/12 07:17:58;;;;;;;7.05;3.15;;;;;;;;;;5052358;28;20107;-65
2023/04/12 07:20:24;;;;;;;11.02;3.08;;;;;;;;;;5052790;28;20536;-66
2023/04/12 07:22:51;;;;;;;15.80;3.47;;;;;;;;;;5052506;28;20031;-67
2023/04/12 07:25:17;;;;;;;11.02;3.10;;;;;;;;;;5052635;28;20025;-66
2023/04/12 07:27:43;;;;;;;4.90;2.08;;;;;;;;;;5053039;28;20032;-66
2023/04/12 07:30:10;;;;;;;4.70;2.15;;;;;;;;;;5051580;28;20051;-66
2023/04/12 07:32:36;;;;;;;6.13;2.38;;;;;;;;;;5052396;28;20082;-66
2023/04/12 07:35:02;;;;;;;9.05;2.38;;;;;;;;;;5051653;28;20040;-64
2023/04/12 07:37:29;;;;;;;12.57;3.60;;;;;;;;;;5052261;28;20482;-66
2023/04/12 07:39:56;;;;;;;6.97;2.85;;;;;;;;;;5052996;28;20036;-66
2023/04/12 07:42:22;;;;;;;8.73;2.78;;;;;;;;;;5051844;28;20021;-66
2023/04/12 07:44:48;;;;;;;10.10;2.75;;;;;;;;;;5051900;28;20493;-65
2023/04/12 07:47:14;;;;;;;11.35;3.08;;;;;;;;;;5052724;28;20025;-65
2023/04/12 07:49:41;;;;;;;8.38;2.65;;;;;;;;;;5052616;28;20021;-64
2023/04/12 07:52:07;;;;;;;9.45;2.53;;;;;;;;;;5052685;28;20029;-66
2023/04/12 07:54:33;;;;;;;8.00;2.22;;;;;;;;;;5051716;28;20029;-66
2023/04/12 07:57:01;;;;;;;8.45;2.80;;;;;;;;;;5050402;28;20975;-65
2023/04/12 07:59:28;;;;;;;9.45;2.55;;;;;;;;;;5051805;28;20013;-65
2023/04/12 08:01:54;;;;;;;6.82;2.38;;;;;;;;;;5052228;28;20059;-66
2023/04/12 08:04:20;;;;;;;6.55;2.30;;;;;;;;;;5052140;28;20070;-66
2023/04/12 08:06:47;;;;;;;8.43;2.40;;;;;;;;;;5052295;28;20044;-66
2023/04/12 08:09:13;;;;;;;14.27;2.70;;;;;;;;;;5051837;28;20041;-66
2023/04/12 08:11:40;;;;;;;11.27;2.45;;;;;;;;;;5052043;28;20474;-67
2023/04/12 08:14:06;;;;;;;7.63;2.03;;;;;;;;;;5052059;28;20041;-66
2023/04/12 08:16:33;;;;;;;12.27;2.60;;;;;;;;;;5051987;28;20478;-66
2023/04/12 08:19:00;;;;;;;10.80;2.33;;;;;;;;;;5051590;28;20508;-66
2023/04/12 08:21:26;;;;;;;6.35;2.53;;;;;;;;;;5051776;28;20047;-65
2023/04/12 08:23:53;;;;;;;8.73;2.35;;;;;;;;;;5051706;28;20029;-67
2023/04/12 08:26:20;;;;;;;7.10;2.10;;;;;;;;;;5049207;28;20032;-66
2023/04/12 08:28:47;;;;;;;12.55;2.50;;;;;;;;;;5059016;28;20021;-67
2023/04/12 08:31:14;;;;;;;14.50;2.25;;;;;;;;;;5043352;28;20041;-66
2023/04/12 08:33:40;;;;;;;7.82;2.47;;;;;;;;;;5042388;28;20041;-67
2023/04/12 08:36:07;;;;;;;10.63;2.88;;;;;;;;;;5042305;28;20013;-67
2023/04/12 08:38:33;;;;;;;10.40;2.75;;;;;;;;;;5045576;28;20668;-64
2023/04/12 08:41:02;;;;;;;8.32;2.90;;;;;;;;;;5045900;28;20026;-66
2023/04/12 08:43:29;;;;;;;15.45;2.55;;;;;;;;;;5039659;28;20031;-66
2023/04/12 08:45:56;;;;;;;10.43;3.10;;;;;;;;;;5034705;28;20017;-67
2023/04/12 08:48:22;;;;;;;11.82;2.80;;;;;;;;;;5051297;28;20051;-67
2023/04/12 08:50:49;;;;;;;10.85;1.90;;;;;;;;;;5050952;28;20397;-66
2023/04/12 08:53:15;;;;;;;7.03;2.28;;;;;;;;;;5050883;28;20259;-66
2023/04/12 08:55:45;;;;;;;7.28;2.20;;;;;;;;;;5042147;28;20035;-66
2023/04/12 08:58:14;;;;;;;9.68;2.60;;;;;;;;;;5050603;28;20074;-67
2023/04/12 09:00:41;;;;;;;10.85;2.90;;;;;;;;;;5047121;28;20033;-67
2023/04/12 09:03:09;;;;;;;6.85;2.47;;;;;;;;;;5031061;28;20044;-67
2023/04/12 09:05:36;;;;;;;9.90;2.80;;;;;;;;;;5030203;28;20030;-66
2023/04/12 09:08:02;;;;;;;7.25;2.17;;;;;;;;;;5031081;28;20025;-67
2023/04/12 09:10:33;;;;;;;10.75;2.80;;;;;;;;;;5043933;28;20035;-66
2023/04/12 09:13:00;;;;;;;9.60;2.67;;;;;;;;;;5048659;28;20593;-67
2023/04/12 09:15:26;;;;;;;6.93;2.33;;;;;;;;;;5036041;28;20052;-67
2023/04/12 09:18:06;;;;;;;7.78;2.20;;;;;;;;;;5043419;28;20035;-67
2023/04/12 09:20:32;;;;;;;9.77;2.63;;;;;;;;;;5049705;28;20044;-67
2023/04/12 09:22:59;;;;;;;14.32;3.33;;;;;;;;;;5050232;28;20021;-67
2023/04/12 09:25:46;;;;;;;8.40;2.90;;;;;;;;;;5044715;28;20033;-66
2023/04/12 09:28:26;;;;;;;11.60;3.08;;;;;;;;;;5048747;28;20381;-67
2023/04/12 09:30:53;;;;;;;9.68;2.95;;;;;;;;;;5035799;28;20049;-67
2023/04/12 09:33:32;;;;;;;13.85;2.58;;;;;;;;;;5035518;28;20033;-67
2023/04/12 09:36:02;;;;;;;7.68;2.50;;;;;;;;;;5049776;28;20037;-67
2023/04/12 09:38:29;;;;;;;12.13;3.03;;;;;;;;;;5051573;28;20025;-67
2023/04/12 09:40:55;;;;;;;9.27;2.63;;;;;;;;;;5051287;28;20043;-67
2023/04/12 09:43:37;;;;;;;13.48;2.78;;;;;;;;;;5043883;28;20063;-67
2023/04/12 09:46:11;;;;;;;6.90;2.55;;;;;;;;;;5044407;28;20086;-65
2023/04/12 09:48:42;;;;;;;8.00;2.75;;;;;;;;;;5053703;28;20017;-67
2023/04/12 09:51:08;;;;;;;10.70;2.88;;;;;;;;;;5049750;28;20531;-67
2023/04/12 09:53:35;;;;;;;9.32;2.70;;;;;;;;;;5049706;28;20040;-65
2023/04/12 09:56:05;;;;;;;16.02;2.97;;;;;;;;;;5048406;28;20021;-67
2023/04/12 09:58:32;;;;;;;7.68;2.42;;;;;;;;;;5054534;28;20025;-67
2023/04/12 10:01:00;;;;;;;7.57;2.70;;;;;;;;;;5054195;28;20021;-67
2023/04/12 10:03:27;;;;;;;14.70;3.13;;;;;;;;;;5054228;28;20489;-67
2023/04/12 10:05:54;;;;;;;8.52;2.70;;;;;;;;;;5053294;28;20017;-67
2023/04/12 10:08:22;;;;;;;10.60;2.63;;;;;;;;;;5043215;28;20482;-67
2023/04/12 10:10:48;;;;;;;9.65;2.60;;;;;;;;;;5034775;28;20025;-67
2023/04/12 10:13:15;;;;;;;9.02;2.60;;;;;;;;;;5037869;28;20398;-67
2023/04/12 10:15:42;;;;;;;5.97;2.35;;;;;;;;;;5045443;28;20486;-67
2023/04/12 10:18:10;;;;;;;12.55;3.22;;;;;;;;;;5046020;28;20089;-68
2023/04/12 10:20:40;;;;;;;11.68;2.92;;;;;;;;;;5034417;28;20512;-67
2023/04/12 10:23:07;;;;;;;8.23;2.65;;;;;;;;;;5033853;28;20029;-67
2023/04/12 10:25:34;;;;;;;7.95;2.45;;;;;;;;;;5034254;28;20389;-67
2023/04/12 10:28:23;;;;;;;10.02;2.80;;;;;;;;;;5043379;28;20094;-68
2023/04/12 10:30:50;;;;;;;9.68;2.45;;;;;;;;;;5033485;28;20046;-67
2023/04/12 10:33:18;;;;;;;13.55;3.25;;;;;;;;;;5033828;28;20029;-67
2023/04/12 10:35:47;;;;;;;9.90;2.70;;;;;;;;;;5033986;28;20025;-67
2023/04/12 10:38:14;;;;;;;9.10;3.28;;;;;;;;;;5034046;28;20040;-67
2023/04/12 10:41:02;;;;;;;13.00;2.50;;;;;;;;;;5032875;28;20029;-67
2023/04/12 10:43:29;;;;;;;7.45;2.80;;;;;;;;;;5034043;28;20024;-67
2023/04/12 10:45:56;;;;;;;12.25;2.90;;;;;;;;;;5033770;28;20025;-67
2023/04/12 10:48:29;;;;;;;12.52;3.00;;;;;;;;;;5046493;28;20409;-66
2023/04/12 10:51:11;;;;;;;11.40;2.67;;;;;;;;;;5053316;28;20021;-67
2023/04/12 10:53:37;;;;;;;8.20;2.75;;;;;;;;;;5053428;28;20029;-67
2023/04/12 10:56:23;;;;;;;10.98;2.80;;;;;;;;;;5053880;28;20021;-67
2023/04/12 10:58:50;;;;;;;10.60;2.10;;;;;;;;;;5053503;28;20029;-67
2023/04/12 11:01:17;;;;;;;11.55;3.33;;;;;;;;;;5053188;28;20029;-67
2023/04/12 11:04:02;;;;;;;10.93;2.83;;;;;;;;;;5053799;28;20017;-66
2023/04/12 11:06:39;;;;;;;9.85;2.47;;;;;;;;;;5053504;28;20037;-66
2023/04/12 11:09:06;;;;;;;8.80;2.13;;;;;;;;;;5053661;28;20030;-68
2023/04/12 11:11:34;;;;;;;7.97;2.10;;;;;;;;;;5051501;28;20029;-67
2023/04/12 11:14:01;;;;;;;8.85;3.40;;;;;;;;;;5053353;28;20035;-67
2023/04/12 11:16:27;;;;;;;10.55;2.75;;;;;;;;;;5053429;28;20027;-67
2023/04/12 11:18:54;;;;;;;6.18;3.10;;;;;;;;;;5053437;28;20039;-67
2023/04/12 11:21:21;;;;;;;9.50;2.50;;;;;;;;;;5053660;28;20025;-67
2023/04/12 11:23:48;;;;;;;7.88;1.67;;;;;;;;;;5053367;28;20035;-67
2023/04/12 11:26:19;;;;;;;8.93;2.20;;;;;;;;;;5051779;28;20078;-66
2023/04/12 11:28:47;;;;;;;6.53;2.13;;;;;;;;;;5052992;28;20485;-67
2023/04/12 11:31:13;;;;;;;7.43;1.77;;;;;;;;;;5052531;28;20047;-67
2023/04/12 11:33:40;;;;;;;8.77;2.50;;;;;;;;;;5046244;28;20032;-65
2023/04/12 11:36:08;;;;;;;8.02;2.28;;;;;;;;;;5038297;28;20044;-66
2023/04/12 11:38:36;;;;;;;7.55;2.47;;;;;;;;;;5036053;28;20025;-67
2023/04/12 11:41:04;;;;;;;6.53;2.10;;;;;;;;;;5041304;28;20029;-67
2023/04/12 11:43:31;;;;;;;7.07;1.95;;;;;;;;;;5036317;28;20028;-66
2023/04/12 11:46:01;;;;;;;4.72;1.90;;;;;;;;;;5050320;28;20043;-67
2023/04/12 11:48:27;;;;;;;6.30;1.98;;;;;;;;;;5052117;28;20546;-66
2023/04/12 11:50:57;;;;;;;5.13;1.95;;;;;;;;;;5052299;28;20029;-67
2023/04/12 11:53:30;;;;;;;5.32;2.10;;;;;;;;;;5052216;28;20032;-67
2023/04/12 11:56:00;;;;;;;4.75;2.08;;;;;;;;;;5051975;28;20066;-67
2023/04/12 11:58:27;;;;;;;5.47;2.37;;;;;;;;;;5054046;28;20036;-67
2023/04/12 12:00:58;;;;;;;4.32;2.28;;;;;;;;;;5051666;28;20025;-67
2023/04/12 12:03:25;;;;;;;6.35;2.10;;;;;;;;;;5052635;28;20025;-67
2023/04/12 12:05:51;;;;;;;6.55;2.10;;;;;;;;;;5052431;28;20027;-67
2023/04/12 12:08:18;;;;;;;8.73;2.35;;;;;;;;;;5039153;28;20071;-67
2023/04/12 12:11:09;;;;;;;6.22;2.20;;;;;;;;;;5032813;28;20537;-67
2023/04/12 12:13:52;;;;;;;6.07;2.40;;;;;;;;;;5032706;28;20029;-67
2023/04/12 12:16:23;;;;;;;7.00;2.60;;;;;;;;;;5034628;28;20032;-66
2023/04/12 12:18:49;;;;;;;6.63;3.50;;;;;;;;;;5033010;28;20025;-66
2023/04/12 12:21:16;;;;;;;6.70;2.30;;;;;;;;;;5032427;28;20025;-67
2023/04/12 12:23:43;;;;;;;7.35;2.30;;;;;;;;;;5032578;28;20508;-66
2023/04/12 12:26:09;;;;;;;7.38;4.15;;;;;;;;;;5032358;28;20018;-66
2023/04/12 12:28:37;;;;;;;9.05;2.83;;;;;;;;;;5031947;28;20385;-67
2023/04/12 12:31:07;;;;;;;4.80;2.75;;;;;;;;;;5032114;28;20445;-67
2023/04/12 12:33:37;;;;;;;8.67;3.43;;;;;;;;;;5032452;28;20046;-66
2023/04/12 12:36:03;;;;;;;5.83;2.60;;;;;;;;;;5032692;28;20022;-66
2023/04/12 12:38:36;;;;;;;6.90;2.25;;;;;;;;;;5032132;28;20034;-67
2023/04/12 12:41:15;;;;;;;7.00;2.08;;;;;;;;;;5032242;28;20475;-67
2023/04/12 12:43:48;;;;;;;4.93;2.03;;;;;;;;;;5031944;28;20026;-67
2023/04/12 12:46:16;;;;;;;3.63;2.03;;;;;;;;;;5032702;28;20021;-67
2023/04/12 12:48:42;;;;;;;4.88;2.17;;;;;;;;;;5032570;28;20030;-67
2023/04/12 12:51:10;;;;;;;9.02;2.63;;;;;;;;;;5032039;28;20385;-67
2023/04/12 12:53:37;;;;;;;3.60;1.70;;;;;;;;;;5032460;28;20018;-66
2023/04/12 12:56:04;;;;;;;5.20;2.30;;;;;;;;;;5032129;28;20078;-67
2023/04/12 12:58:31;;;;;;;6.40;2.20;;;;;;;;;;5031924;28;20501;-67
2023/04/12 13:00:57;;;;;;;4.65;2.17;;;;;;;;;;5045665;28;20017;-67
2023/04/12 13:03:23;;;;;;;16.13;9.18;;;;;;;;;;5039219;28;20033;-67
2023/04/12 13:05:50;;;;;;;11.65;5.95;;;;;;;;;;5042434;28;20031;-66
2023/04/12 13:08:17;;;;;;;12.60;7.57;;;;;;;;;;5042242;28;20025;-66
2023/04/12 13:10:43;;;;;;;7.55;2.85;;;;;;;;;;5037088;28;20033;-67
2023/04/12 13:13:10;;;;;;;17.13;11.25;;;;;;;;;;5031762;28;20043;-67
2023/04/12 13:15:36;;;;;;;21.35;11.43;;;;;;;;;;5031704;28;20481;-66
2023/04/12 13:18:02;;;;;;;15.10;8.55;;;;;;;;;;5044045;28;20039;-66
2023/04/12 13:20:29;;;;;;;18.75;11.20;;;;;;;;;;5048934;28;20033;-66
2023/04/12 13:22:55;;;;;;;11.93;6.22;;;;;;;;;;5042782;28;20025;-67
2023/04/12 13:25:21;;;;;;;7.30;2.90;;;;;;;;;;5051400;28;20478;-67
2023/04/12 13:27:48;;;;;;;4.00;2.10;;;;;;;;;;5049212;28;20553;-67
2023/04/12 13:30:15;;;;;;;4.93;2.05;;;;;;;;;;5051549;28;20047;-66
2023/04/12 13:32:43;;;;;;;3.72;1.75;;;;;;;;;;5051698;28;20025;-67
2023/04/12 13:35:10;;;;;;;5.60;1.88;;;;;;;;;;5042253;28;20038;-67
2023/04/12 13:37:36;;;;;;;5.38;1.85;;;;;;;;;;5042280;28;20050;-67
2023/04/12 13:40:03;;;;;;;3.08;2.10;;;;;;;;;;5037863;28;20496;-66
2023/04/12 13:42:29;;;;;;;3.17;1.88;;;;;;;;;;5031457;28;20028;-67
2023/04/12 13:44:55;;;;;;;4.40;2.30;;;;;;;;;;5074720;28;20393;-67
2023/04/12 13:47:22;;;;;;;3.83;2.00;;;;;;;;;;5031320;28;20044;-66
2023/04/12 13:49:49;;;;;;;7.40;2.78;;;;;;;;;;5031263;28;20032;-66
2023/04/12 13:52:15;;;;;;;5.18;2.42;;;;;;;;;;5031621;28;20040;-67
2023/04/12 13:54:42;;;;;;;8.88;4.15;;;;;;;;;;5031116;28;20026;-67
2023/04/12 13:57:08;;;;;;;6.13;2.45;;;;;;;;;;5031323;28;20021;-66
2023/04/12 13:59:35;;;;;;;6.55;3.30;;;;;;;;;;5034506;28;20021;-67
2023/04/12 14:02:01;;;;;;;6.20;2.22;;;;;;;;;;5049510;28;20025;-66
2023/04/12 14:04:28;;;;;;;5.00;1.70;;;;;;;;;;5051451;28;20044;-67
2023/04/12 14:06:55;;;;;;;5.22;2.28;;;;;;;;;;5051385;28;20024;-67
2023/04/12 14:09:26;;;;;;;4.05;1.80;;;;;;;;;;5051083;28;20086;-67
2023/04/12 14:11:56;;;;;;;4.15;1.90;;;;;;;;;;5051586;28;20017;-66
2023/04/12 14:14:23;;;;;;;5.13;2.25;;;;;;;;;;5051417;28;20037;-67
2023/04/12 14:16:55;;;;;;;6.60;1.95;;;;;;;;;;5051269;28;20469;-66
2023/04/12 14:19:22;;;;;;;2.95;2.13;;;;;;;;;;5051576;28;20036;-66
2023/04/12 14:21:49;;;;;;;5.00;2.35;;;;;;;;;;5051287;28;20366;-66
2023/04/12 14:24:16;;;;;;;4.50;2.55;;;;;;;;;;5051328;28;20025;-66
2023/04/12 14:26:44;;;;;;;4.20;2.28;;;;;;;;;;5055105;28;20033;-66
2023/04/12 14:29:10;;;;;;;6.20;2.85;;;;;;;;;;5054888;28;20033;-67
2023/04/12 14:31:37;;;;;;;5.38;2.40;;;;;;;;;;5054525;28;20063;-67
2023/04/12 14:34:04;;;;;;;5.50;1.80;;;;;;;;;;5054653;28;20445;-67
2023/04/12 14:36:32;;;;;;;4.05;1.58;;;;;;;;;;5054970;28;20438;-66
2023/04/12 14:38:58;;;;;;;4.85;1.60;;;;;;;;;;5054593;28;20035;-66
2023/04/12 14:41:25;;;;;;;4.20;1.20;;;;;;;;;;5054609;28;20432;-66
2023/04/12 14:43:51;;;;;;;5.10;0.88;;;;;;;;;;5054672;28;20023;-66
2023/04/12 14:46:17;;;;;;;2.13;0.80;;;;;;;;;;5054980;28;20067;-66